Latest Weather Observations for Scottsdale

IDT60801

Issued at 3:12 pm EDT Thursday 13 December 2018 (issued every 10 minutes, with the page automatically refreshed every 10 minutes)

About weather observations | Map of weather stations | Latest weather observations for TAS | Other Formats
Station Details ID: 091219 Name: SCOTTSDALE (WEST MINSTONE ROAD) Lat: -41.17 Lon: 147.49 Height: 197.5 m
Data from the previous 72 hours. | See also: Recent months at Scottsdale
Date/Time
EDT
Temp
°C
App
Temp
°C
Dew
Point
°C
Rel
Hum
%
Delta-T
°C
Wind Press
QNH
hPa
Press
MSL
hPa
Rain since
9am
mm
Dir  Spd
km/h
Gust
km/h
Spd
kts
Gust
kts
13/03:07pm 17.8 - - - - E 30 48 16 26 1004.3 - 0.0
13/03:00pm 17.6 - - - - E 30 46 16 25 1004.2 1003.9 0.0
13/02:30pm 17.8 - - - - E 32 50 17 27 1004.2 - 0.0
13/02:12pm 18.3 - - - - E 32 50 17 27 1004.2 - 0.0
13/02:00pm 18.0 - - - - E 33 44 18 24 1004.2 - 0.0
13/01:30pm 18.8 - - - - E 32 48 17 26 1004.1 - 0.0
13/01:03pm 18.1 - - - - E 30 48 16 26 1004.0 - 0.0
13/01:00pm 18.3 - - - - E 26 39 14 21 1004.0 - 0.0
13/12:46pm 18.1 - - - - E 32 50 17 27 1003.9 - 0.0
13/12:30pm 17.7 - - - - E 30 43 16 23 1003.9 - 0.0
13/12:00pm 17.7 - - - - E 32 44 17 24 1003.6 1003.3 0.0
13/11:30am 17.6 - - - - E 32 48 17 26 1003.7 - 0.0
13/11:00am 17.7 - - - - E 26 35 14 19 1003.7 - 0.0
13/10:30am 17.4 - - - - E 32 43 17 23 1003.6 - 0.0
13/10:00am 17.1 - - - - E 30 37 16 20 1003.8 - 0.0
13/09:30am 17.1 - - - - E 26 37 14 20 1004.1 - 0.0
13/09:00am 17.2 - - - - E 26 35 14 19 1004.0 1003.7 0.0
13/08:51am 17.2 - - - - E 28 46 15 25 1004.2 - 0.0
13/08:30am 16.6 - - - - E 26 39 14 21 1004.4 - 0.0
13/08:00am 16.3 - - - - E 28 37 15 20 1004.4 - 0.0
13/07:30am 16.2 - - - - E 28 39 15 21 1004.3 - 0.0
13/07:00am 16.0 - - - - E 24 32 13 17 1004.3 - 0.0
13/06:30am 15.9 - - - - E 26 39 14 21 1004.6 - 0.0
13/06:00am 16.0 - - - - E 24 35 13 19 1004.5 1004.3 0.0
13/05:30am 16.1 - - - - E 24 35 13 19 1004.4 - 0.0
13/05:00am 16.0 - - - - E 26 39 14 21 1004.5 - 0.0
13/04:30am 16.1 - - - - E 24 32 13 17 1004.6 - 0.0
13/04:00am 16.1 - - - - E 24 32 13 17 1005.1 - 0.0
13/03:30am 16.1 - - - - E 22 30 12 16 1005.2 - 0.0
13/03:00am 16.2 - - - - E 19 26 10 14 1005.7 1005.5 0.0
13/02:30am 16.1 - - - - E 22 30 12 16 1006.1 - 0.0
13/02:00am 16.1 - - - - E 20 33 11 18 1006.4 - 0.0
13/01:30am 15.9 - - - - E 22 30 12 16 1006.6 - 0.0
13/01:00am 15.7 - - - - E 22 28 12 15 1007.0 - 0.0
13/12:30am 15.7 - - - - E 20 28 11 15 1007.9 - 0.0
13/12:00am 15.6 - - - - E 20 32 11 17 1008.3 1008.0 0.0
 
Date/Time
EDT
Temp
°C
App
Temp
°C
Dew
Point
°C
Rel
Hum
%
Delta-T
°C
Wind Press
QNH
hPa
Press
MSL
hPa
Rain since
9am
mm
Dir  Spd
km/h
Gust
km/h
Spd
kts
Gust
kts
12/11:30pm 15.8 - - - - E 20 26 11 14 1008.6 - 0.0
12/11:00pm 16.0 - - - - E 19 28 10 15 1008.8 - 0.0
12/10:30pm 16.0 - - - - E 20 30 11 16 1009.2 - 0.0
12/10:00pm 16.0 - - - - E 19 26 10 14 1009.6 - 0.0
12/09:30pm 16.0 - - - - E 19 26 10 14 1009.7 - 0.0
12/09:00pm 16.2 - - - - E 19 28 10 15 1009.8 1009.6 0.0
12/08:30pm 16.3 - - - - E 20 32 11 17 1009.5 - 0.0
12/08:00pm 16.7 - - - - E 20 28 11 15 1009.6 - 0.0
12/07:30pm 17.1 - - - - E 20 30 11 16 1009.6 - 0.0
12/07:00pm 17.7 - - - - ENE 22 28 12 15 1009.7 - 0.0
12/06:30pm 18.3 - - - - E 24 33 13 18 1009.9 - 0.0
12/06:00pm 18.9 - - - - E 20 28 11 15 1009.9 1009.7 0.0
12/05:30pm 20.1 - - - - ENE 22 32 12 17 1009.8 - 0.0
12/05:00pm 21.1 - - - - ENE 22 33 12 18 1010.1 - 0.0
12/04:30pm 21.2 - - - - E 22 32 12 17 1010.5 - 0.0
12/04:00pm 21.4 - - - - ENE 20 32 11 17 1011.0 - 0.0
12/03:30pm 21.9 - - - - ENE 20 32 11 17 1011.4 - 0.0
12/03:00pm 21.7 - - - - NE 20 28 11 15 1012.1 1011.9 0.0
12/02:30pm 21.3 - - - - NE 20 30 11 16 1012.4 - 0.0
12/02:00pm 20.8 - - - - ENE 19 28 10 15 1012.5 - 0.0
12/01:30pm 21.4 - - - - ENE 20 32 11 17 1013.1 - 0.0
12/01:00pm 21.5 - - - - ENE 19 26 10 14 1013.7 - 0.0
12/12:30pm 20.6 - - - - ENE 20 32 11 17 1013.9 - 0.0
12/12:00pm 20.1 - - - - E 22 30 12 16 1014.2 1014.0 0.0
12/11:30am 19.5 - - - - ENE 19 28 10 15 1014.4 - 0.0
12/11:00am 19.0 - - - - NE 20 26 11 14 1014.7 - 0.0
12/10:30am 18.5 - - - - NE 22 26 12 14 1015.2 - 0.0
12/10:00am 17.3 - - - - NE 19 28 10 15 1015.4 - 0.0
12/09:30am 17.1 - - - - ENE 22 32 12 17 1015.7 - 0.0
12/09:00am 16.3 - - - - ENE 22 30 12 16 1016.0 1015.8 0.0
12/08:30am 15.6 - - - - E 22 32 12 17 1016.1 - 0.0
12/08:00am 14.9 - - - - E 19 28 10 15 1016.1 - 0.0
12/07:30am 14.2 - - - - E 13 20 7 11 1016.3 - 0.0
12/07:00am 13.5 - - - - E 15 22 8 12 1016.2 - 0.0
12/06:30am 12.4 - - - - E 15 19 8 10 1016.3 - 0.0
12/06:00am 10.3 - - - - ESE 11 13 6 7 1016.2 1016.0 0.0
12/05:30am 9.4 - - - - ESE 7 9 4 5 1016.6 - 0.0
12/05:00am 8.9 - - - - CALM 0 0 0 0 1016.9 - 0.0
12/04:30am 10.2 - - - - CALM 0 4 0 2 1016.8 - 0.0
12/04:00am 11.4 - - - - SE 9 11 5 6 1016.9 - 0.0
12/03:30am 12.4 - - - - E 11 13 6 7 1017.3 - 0.0
12/03:00am 12.5 - - - - ENE 7 9 4 5 1017.6 1017.5 0.0
12/02:30am 12.4 - - - - ENE 11 17 6 9 1018.1 - 0.0
12/02:00am 12.6 - - - - ENE 17 20 9 11 1018.5 - 0.0
12/01:30am 12.6 - - - - NE 19 24 10 13 1018.9 - 0.0
12/01:00am 13.3 - - - - NE 19 22 10 12 1019.0 - 0.0
12/12:30am 13.6 - - - - NE 19 24 10 13 1019.2 - 0.0
12/12:00am 13.8 - - - - ENE 9 15 5 8 1019.4 1019.2 0.0
 
Date/Time
EDT
Temp
°C
App
Temp
°C
Dew
Point
°C
Rel
Hum
%
Delta-T
°C
Wind Press
QNH
hPa
Press
MSL
hPa
Rain since
9am
mm
Dir  Spd
km/h
Gust
km/h
Spd
kts
Gust
kts
11/11:30pm 13.8 - - - - NE 20 26 11 14 1019.4 - 0.0
11/11:00pm 14.0 - - - - ENE 20 26 11 14 1019.5 - 0.0
11/10:30pm 14.3 - - - - NE 20 26 11 14 1019.5 - 0.0
11/10:00pm 14.6 - - - - NE 17 20 9 11 1019.7 - 0.0
11/09:30pm 15.0 - - - - N 13 19 7 10 1019.5 - 0.0
11/09:00pm 15.9 - - - - NNE 7 13 4 7 1019.2 1019.0 0.0
11/08:30pm 16.4 - - - - N 11 15 6 8 1019.1 - 0.0
11/08:00pm 16.8 - - - - N 11 13 6 7 1019.0 - 0.0
11/07:30pm 17.2 - - - - N 9 15 5 8 1018.8 - 0.0
11/07:00pm 17.5 - - - - N 11 15 6 8 1018.7 - 0.0
11/06:30pm 17.7 - - - - N 13 17 7 9 1018.6 - 0.0
11/06:00pm 17.6 - - - - NW 9 15 5 8 1018.8 1018.6 0.0
11/05:30pm 17.7 - - - - N 15 22 8 12 1018.9 - 0.0
11/05:00pm 18.7 - - - - N 17 24 9 13 1019.2 - 0.0
11/04:30pm 19.6 - - - - NNW 15 24 8 13 1019.1 - 0.0
11/04:00pm 18.8 - - - - N 20 26 11 14 1019.2 - 0.0
11/03:30pm 20.1 - - - - NNW 17 24 9 13 1019.2 - 0.0
11/03:00pm 20.9 - - - - NW 17 26 9 14 1019.4 1019.2 0.0
11/02:30pm 21.2 - - - - N 15 22 8 12 1019.4 - 0.0
11/02:00pm 19.1 - - - - N 17 26 9 14 1019.7 - 0.0
11/01:30pm 20.2 - - - - NNW 17 26 9 14 1020.1 - 0.0
11/01:00pm 18.4 - - - - N 15 24 8 13 1020.2 - 0.0
11/12:30pm 19.1 - - - - NNW 17 24 9 13 1020.5 - 0.0
11/12:00pm 19.4 - - - - NW 7 17 4 9 1020.5 1020.3 0.0
11/11:30am 18.5 - - - - N 9 17 5 9 1020.3 - 0.0
11/10:30am 17.3 - - - - ENE 9 15 5 8 1020.5 - 0.0
11/10:00am 17.0 - - - - NE 7 15 4 8 1020.5 - 0.0
11/09:30am 16.7 - - - - E 9 11 5 6 1020.6 - 0.0
11/09:00am 16.0 - - - - ENE 11 15 6 8 1020.5 1020.3 0.0
11/08:30am 15.2 - - - - E 11 15 6 8 1020.2 - 0.0
11/08:00am 14.5 - - - - ENE 7 9 4 5 1020.0 - 0.0
11/07:30am 13.9 - - - - NNE 4 7 2 4 1019.7 - 0.0
11/07:00am 13.1 - - - - CALM 0 0 0 0 1019.4 - 0.0
11/06:30am 12.2 - - - - CALM 0 0 0 0 1019.1 - 0.0
11/06:00am 11.7 - - - - CALM 0 0 0 0 1018.9 1018.7 0.0
11/05:30am 11.8 - - - - CALM 0 0 0 0 1018.8 - 0.0
11/05:00am 12.2 - - - - CALM 0 0 0 0 1018.6 - 0.0
11/04:30am 12.1 - - - - CALM 0 0 0 0 1018.4 - 0.0
11/04:00am 11.8 - - - - SSE 6 7 3 4 1018.4 - 0.0
11/03:30am 11.0 - - - - S 6 7 3 4 1018.3 - 0.0
11/03:00am 10.1 - - - - E 6 7 3 4 1018.4 1018.2 0.0
11/02:30am 11.1 - - - - E 7 7 4 4 1018.4 - 0.0
11/02:00am 11.3 - - - - ESE 9 11 5 6 1018.4 - 0.0
11/01:30am 11.8 - - - - ESE 11 13 6 7 1018.6 - 0.0
11/01:00am 11.5 - - - - ESE 11 11 6 6 1018.6 - 0.0
11/12:30am 12.2 - - - - ESE 13 15 7 8 1018.5 - 0.0
11/12:00am 11.9 - - - - E 7 9 4 5 1018.6 1018.4 0.0
 
Date/Time
EDT
Temp
°C
App
Temp
°C
Dew
Point
°C
Rel
Hum
%
Delta-T
°C
Wind Press
QNH
hPa
Press
MSL
hPa
Rain since
9am
mm
Dir  Spd
km/h
Gust
km/h
Spd
kts
Gust
kts
10/11:30pm 12.1 - - - - E 7 9 4 5 1018.6 - 0.0
10/11:00pm 12.3 - - - - ENE 7 9 4 5 1018.5 - 0.0
10/10:30pm 13.9 - - - - ENE 9 13 5 7 1018.4 - 0.0
10/10:00pm 14.9 - - - - ENE 13 15 7 8 1018.3 - 0.0
10/09:30pm 14.8 - - - - E 13 17 7 9 1017.8 - 0.0
10/09:00pm 15.6 - - - - ENE 22 28 12 15 1017.2 1017.0 0.0
10/08:30pm 16.3 - - - - ENE 24 33 13 18 1016.9 - 0.0
10/08:00pm 17.2 - - - - E 26 35 14 19 1016.2 - 0.0
10/07:30pm 18.1 - - - - E 26 32 14 17 1015.5 - 0.0
10/07:00pm 19.5 - - - - E 26 35 14 19 1015.0 - 0.0
10/06:30pm 19.5 - - - - E 22 33 12 18 1014.6 - 0.0
10/06:00pm 20.3 - - - - E 19 22 10 12 1014.1 1013.9 0.0
10/05:30pm 21.3 - - - - N 9 15 5 8 1013.7 - 0.0
10/05:00pm 21.7 - - - - NW 17 26 9 14 1013.4 - 0.0
10/04:30pm 20.9 - - - - N 22 33 12 18 1013.2 - 0.0
10/04:00pm 21.7 - - - - N 22 32 12 17 1013.2 - 0.0
10/03:30pm 23.8 - - - - N 22 35 12 19 1013.1 - 0.0

Other Formats:

Comma delimited format used in spreadsheet applications
http://www.bom.gov.au/fwo/IDT60801/IDT60801.94972.axf

JavaScript Object Notation format (JSON) in row-major order
http://www.bom.gov.au/fwo/IDT60801/IDT60801.94972.json